Hove, Belgium
Current Conditions -  °F | °C
As of 10:20 PM on Wednesday 17 Dec 2014 (Local Time) from EBAW Reporting Station
Broken Clouds Broken Clouds  
Wind Chill: 52°   Ceiling: 1800
Heat Index: 52°   Visibility: 6mi
Dew Point: 48°   Wind: 8mph
Humidity: 88%   Direction: 230°SW
Pressure: 29.83"   Gusts: NA
Location:  51.15°N, 4.47°E
Report Text: EBAW 172120Z 23007KT 9999 BKN018 11/09 Q1010 NOSIG
Loading
Personal Weather Stations






























Interactive Weather Map New forecast layout! Learn more

10-Day Weather Forecast

Advertisements
Track Severe Weather on mobile